sensor_id;sensor_type;location;lat;lon;timestamp;pressure;altitude;pressure_sealevel;temperature;humidity
32237;BME280;18726;44.732;10.550;2023-05-21T00:00:52;100893.78;;;18.27;100.00
32237;BME280;18726;44.732;10.550;2023-05-21T00:03:56;100889.84;;;18.28;100.00
32237;BME280;18726;44.732;10.550;2023-05-21T00:07:01;100892.22;;;18.18;100.00
32237;BME280;18726;44.732;10.550;2023-05-21T00:10:06;100880.44;;;18.07;100.00
32237;BME280;18726;44.732;10.550;2023-05-21T00:13:10;100868.66;;;18.10;100.00
32237;BME280;18726;44.732;10.550;2023-05-21T00:16:14;100876.50;;;18.08;100.00
32237;BME280;18726;44.732;10.550;2023-05-21T00:19:18;100872.56;;;17.99;100.00
32237;BME280;18726;44.732;10.550;2023-05-21T00:22:22;100875.72;;;17.97;100.00
32237;BME280;18726;44.732;10.550;2023-05-21T00:25:25;100865.13;;;18.13;100.00
32237;BME280;18726;44.732;10.550;2023-05-21T00:28:29;100854.09;;;18.28;100.00
32237;BME280;18726;44.732;10.550;2023-05-21T00:31:33;100848.59;;;18.28;100.00
32237;BME280;18726;44.732;10.550;2023-05-21T00:34:37;100848.22;;;18.11;100.00
32237;BME280;18726;44.732;10.550;2023-05-21T00:37:40;100839.97;;;18.11;100.00
32237;BME280;18726;44.732;10.550;2023-05-21T00:40:44;100830.16;;;18.10;100.00
32237;BME280;18726;44.732;10.550;2023-05-21T00:43:48;100823.09;;;18.02;100.00
32237;BME280;18726;44.732;10.550;2023-05-21T00:46:52;100813.66;;;17.96;100.00
32237;BME280;18726;44.732;10.550;2023-05-21T00:49:58;100813.25;;;17.94;100.00
32237;BME280;18726;44.732;10.550;2023-05-21T00:53:02;100817.59;;;17.81;100.00
32237;BME280;18726;44.732;10.550;2023-05-21T00:56:07;100811.31;;;17.70;100.00
32237;BME280;18726;44.732;10.550;2023-05-21T00:59:11;100815.19;;;17.62;100.00
32237;BME280;18726;44.732;10.550;2023-05-21T01:02:15;100813.22;;;17.51;100.00
32237;BME280;18726;44.732;10.550;2023-05-21T01:05:20;100805.38;;;17.53;100.00
32237;BME280;18726;44.732;10.550;2023-05-21T01:08:25;100798.31;;;17.60;100.00
32237;BME280;18726;44.732;10.550;2023-05-21T01:11:49;100797.53;;;17.52;100.00
32237;BME280;18726;44.732;10.550;2023-05-21T01:14:53;100788.88;;;17.39;100.00
32237;BME280;18726;44.732;10.550;2023-05-21T01:17:58;100794.78;;;17.48;100.00
32237;BME280;18726;44.732;10.550;2023-05-21T01:21:03;100791.22;;;17.37;100.00
32237;BME280;18726;44.732;10.550;2023-05-21T01:24:07;100784.94;;;17.33;100.00
32237;BME280;18726;44.732;10.550;2023-05-21T01:27:11;100793.97;;;17.41;100.00
32237;BME280;18726;44.732;10.550;2023-05-21T01:30:19;100788.47;;;17.34;100.00
32237;BME280;18726;44.732;10.550;2023-05-21T01:33:46;100785.34;;;17.39;100.00
32237;BME280;18726;44.732;10.550;2023-05-21T01:37:11;100772.03;;;17.51;100.00
32237;BME280;18726;44.732;10.550;2023-05-21T01:40:29;100778.31;;;17.55;100.00
32237;BME280;18726;44.732;10.550;2023-05-21T01:43:37;100778.31;;;17.55;100.00
32237;BME280;18726;44.732;10.550;2023-05-21T01:46:41;100783.41;;;17.53;100.00
32237;BME280;18726;44.732;10.550;2023-05-21T01:49:45;100781.44;;;17.58;100.00
32237;BME280;18726;44.732;10.550;2023-05-21T01:52:50;100776.34;;;17.56;100.00
32237;BME280;18726;44.732;10.550;2023-05-21T01:55:55;100772.03;;;17.66;100.00
32237;BME280;18726;44.732;10.550;2023-05-21T01:58:59;100775.97;;;17.65;100.00
32237;BME280;18726;44.732;10.550;2023-05-21T02:02:03;100775.19;;;17.61;100.00
32237;BME280;18726;44.732;10.550;2023-05-21T02:05:07;100770.47;;;17.68;100.00
32237;BME280;18726;44.732;10.550;2023-05-21T02:08:12;100770.09;;;17.77;100.00
32237;BME280;18726;44.732;10.550;2023-05-21T02:11:17;100761.06;;;17.80;100.00
32237;BME280;18726;44.732;10.550;2023-05-21T02:14:21;100761.06;;;17.80;100.00
32237;BME280;18726;44.732;10.550;2023-05-21T02:17:25;100752.44;;;17.78;100.00
32237;BME280;18726;44.732;10.550;2023-05-21T02:20:29;100748.50;;;17.79;100.00
32237;BME280;18726;44.732;10.550;2023-05-21T02:23:33;100742.22;;;17.82;100.00
32237;BME280;18726;44.732;10.550;2023-05-21T02:26:36;100739.88;;;17.80;100.00
32237;BME280;18726;44.732;10.550;2023-05-21T02:29:40;100736.72;;;17.82;100.00
32237;BME280;18726;44.732;10.550;2023-05-21T02:32:44;100738.69;;;17.74;100.00
32237;BME280;18726;44.732;10.550;2023-05-21T02:35:48;100740.66;;;17.70;100.00
32237;BME280;18726;44.732;10.550;2023-05-21T02:38:52;100742.56;;;17.63;100.00
32237;BME280;18726;44.732;10.550;2023-05-21T02:41:57;100735.50;;;17.62;100.00
32237;BME280;18726;44.732;10.550;2023-05-21T02:45:01;100730.44;;;17.71;100.00
32237;BME280;18726;44.732;10.550;2023-05-21T02:48:05;100735.16;;;17.74;100.00
32237;BME280;18726;44.732;10.550;2023-05-21T02:51:14;100737.91;;;17.77;100.00
32237;BME280;18726;44.732;10.550;2023-05-21T02:54:20;100731.63;;;17.73;100.00
32237;BME280;18726;44.732;10.550;2023-05-21T02:57:23;100721.81;;;17.76;100.00
32237;BME280;18726;44.732;10.550;2023-05-21T03:00:27;100708.06;;;17.76;100.00
32237;BME280;18726;44.732;10.550;2023-05-21T03:03:31;100728.88;;;17.77;100.00
32237;BME280;18726;44.732;10.550;2023-05-21T03:06:35;100733.59;;;17.80;100.00
32237;BME280;18726;44.732;10.550;2023-05-21T03:09:40;100748.50;;;17.79;100.00
32237;BME280;18726;44.732;10.550;2023-05-21T03:12:45;100753.22;;;17.78;100.00
32237;BME280;18726;44.732;10.550;2023-05-21T03:15:49;100748.50;;;17.72;100.00
32237;BME280;18726;44.732;10.550;2023-05-21T03:18:53;100753.22;;;17.75;100.00
32237;BME280;18726;44.732;10.550;2023-05-21T03:21:57;100748.50;;;17.79;100.00
32237;BME280;18726;44.732;10.550;2023-05-21T03:25:00;100743.78;;;17.83;100.00
32237;BME280;18726;44.732;10.550;2023-05-21T03:28:04;100749.28;;;17.79;100.00
32237;BME280;18726;44.732;10.550;2023-05-21T03:31:24;100743.00;;;17.79;100.00
32237;BME280;18726;44.732;10.550;2023-05-21T03:34:56;100741.44;;;17.71;100.00
32237;BME280;18726;44.732;10.550;2023-05-21T03:38:01;100750.88;;;17.80;100.00
32237;BME280;18726;44.732;10.550;2023-05-21T03:41:06;100748.13;;;17.87;100.00
32237;BME280;18726;44.732;10.550;2023-05-21T03:44:10;100752.41;;;17.92;100.00
32237;BME280;18726;44.732;10.550;2023-05-21T03:47:34;100752.41;;;17.99;100.00
32237;BME280;18726;44.732;10.550;2023-05-21T03:50:40;100752.41;;;18.06;100.00
32237;BME280;18726;44.732;10.550;2023-05-21T03:53:43;100755.53;;;18.01;100.00
32237;BME280;18726;44.732;10.550;2023-05-21T03:56:47;100760.25;;;17.97;100.00
32237;BME280;18726;44.732;10.550;2023-05-21T03:59:51;100755.16;;;17.96;100.00
32237;BME280;18726;44.732;10.550;2023-05-21T04:02:55;100761.81;;;18.05;100.00
32237;BME280;18726;44.732;10.550;2023-05-21T04:06:03;100745.31;;;18.12;100.00
32237;BME280;18726;44.732;10.550;2023-05-21T04:09:06;100745.34;;;18.05;100.00
32237;BME280;18726;44.732;10.550;2023-05-21T04:12:10;100755.16;;;18.13;100.00
32237;BME280;18726;44.732;10.550;2023-05-21T04:15:13;100759.84;;;18.16;100.00
32237;BME280;18726;44.732;10.550;2023-05-21T04:18:21;100779.50;;;18.04;100.00
32237;BME280;18726;44.732;10.550;2023-05-21T04:21:29;100772.81;;;18.12;100.00
32237;BME280;18726;44.732;10.550;2023-05-21T04:24:34;100781.84;;;18.16;100.00
32237;BME280;18726;44.732;10.550;2023-05-21T04:28:00;100795.56;;;18.23;100.00
32237;BME280;18726;44.732;10.550;2023-05-21T04:31:05;100790.09;;;18.16;100.00
32237;BME280;18726;44.732;10.550;2023-05-21T04:34:11;100788.53;;;18.08;100.00
32237;BME280;18726;44.732;10.550;2023-05-21T04:37:15;100803.47;;;18.14;100.00
32237;BME280;18726;44.732;10.550;2023-05-21T04:40:22;100805.03;;;18.08;100.00
32237;BME280;18726;44.732;10.550;2023-05-21T04:43:27;100810.53;;;18.08;100.00
32237;BME280;18726;44.732;10.550;2023-05-21T04:46:34;100797.16;;;18.03;100.00
32237;BME280;18726;44.732;10.550;2023-05-21T04:49:38;100792.88;;;17.88;100.00
32237;BME280;18726;44.732;10.550;2023-05-21T04:52:42;100793.28;;;17.90;100.00
32237;BME280;18726;44.732;10.550;2023-05-21T04:55:48;100783.03;;;18.08;100.00
32237;BME280;18726;44.732;10.550;2023-05-21T04:58:52;100787.72;;;18.26;100.00
32237;BME280;18726;44.732;10.550;2023-05-21T05:01:56;100795.59;;;18.13;100.00
32237;BME280;18726;44.732;10.550;2023-05-21T05:05:00;100786.56;;;17.98;100.00
32237;BME280;18726;44.732;10.550;2023-05-21T05:08:04;100782.63;;;18.13;100.00
32237;BME280;18726;44.732;10.550;2023-05-21T05:11:07;100778.72;;;18.18;100.00
32237;BME280;18726;44.732;10.550;2023-05-21T05:14:11;100786.94;;;18.21;100.00
32237;BME280;18726;44.732;10.550;2023-05-21T05:17:15;100791.63;;;18.25;100.00
32237;BME280;18726;44.732;10.550;2023-05-21T05:20:20;100776.72;;;18.22;100.00
32237;BME280;18726;44.732;10.550;2023-05-21T05:23:23;100778.31;;;18.16;100.00
32237;BME280;18726;44.732;10.550;2023-05-21T05:26:27;100776.75;;;18.11;100.00
32237;BME280;18726;44.732;10.550;2023-05-21T05:29:32;100775.97;;;18.14;100.00
32237;BME280;18726;44.732;10.550;2023-05-21T05:32:36;100779.50;;;18.04;100.00
32237;BME280;18726;44.732;10.550;2023-05-21T05:35:39;100780.69;;;18.10;100.00
32237;BME280;18726;44.732;10.550;2023-05-21T05:38:43;100779.09;;;18.16;100.00
32237;BME280;18726;44.732;10.550;2023-05-21T05:41:47;100773.97;;;18.22;100.00
32237;BME280;18726;44.732;10.550;2023-05-21T05:44:52;100769.63;;;18.35;100.00
32237;BME280;18726;44.732;10.550;2023-05-21T05:47:56;100762.09;;;18.57;100.00
32237;BME280;18726;44.732;10.550;2023-05-21T05:51:00;100779.69;;;18.84;100.00
32237;BME280;18726;44.732;10.550;2023-05-21T05:54:04;100771.00;;;18.97;100.00
32237;BME280;18726;44.732;10.550;2023-05-21T05:57:07;100776.88;;;18.99;100.00
32237;BME280;18726;44.732;10.550;2023-05-21T06:00:12;100787.84;;;19.06;100.00
32237;BME280;18726;44.732;10.550;2023-05-21T06:03:17;100779.53;;;19.16;100.00
32237;BME280;18726;44.732;10.550;2023-05-21T06:06:21;100777.94;;;19.19;100.00
32237;BME280;18726;44.732;10.550;2023-05-21T06:09:24;100769.69;;;19.19;100.00
32237;BME280;18726;44.732;10.550;2023-05-21T06:12:28;100767.66;;;19.30;100.00
32237;BME280;18726;44.732;10.550;2023-05-21T06:15:32;100775.44;;;19.42;100.00
32237;BME280;18726;44.732;10.550;2023-05-21T06:18:37;100778.56;;;19.51;100.00
32237;BME280;18726;44.732;10.550;2023-05-21T06:21:41;100774.47;;;19.67;100.00
32237;BME280;18726;44.732;10.550;2023-05-21T06:24:44;100780.75;;;19.71;100.00
32237;BME280;18726;44.732;10.550;2023-05-21T06:27:49;100780.34;;;19.72;100.00
32237;BME280;18726;44.732;10.550;2023-05-21T06:30:58;100783.84;;;19.80;100.00
32237;BME280;18726;44.732;10.550;2023-05-21T06:34:02;100792.34;;;19.96;100.00
32237;BME280;18726;44.732;10.550;2023-05-21T06:37:07;100789.03;;;20.15;100.00
32237;BME280;18726;44.732;10.550;2023-05-21T06:40:10;100792.66;;;20.50;100.00
32237;BME280;18726;44.732;10.550;2023-05-21T06:43:15;100787.59;;;20.79;100.00
32237;BME280;18726;44.732;10.550;2023-05-21T06:46:37;100794.44;;;21.28;100.00
32237;BME280;18726;44.732;10.550;2023-05-21T06:49:44;100793.81;;;21.44;100.00
32237;BME280;18726;44.732;10.550;2023-05-21T06:52:48;100799.72;;;21.69;100.00
32237;BME280;18726;44.732;10.550;2023-05-21T06:55:52;100796.34;;;22.08;100.00
32237;BME280;18726;44.732;10.550;2023-05-21T06:59:11;100792.28;;;22.36;100.00
32237;BME280;18726;44.732;10.550;2023-05-21T07:02:15;100799.19;;;23.07;100.00
32237;BME280;18726;44.732;10.550;2023-05-21T07:05:19;100803.28;;;23.55;100.00
32237;BME280;18726;44.732;10.550;2023-05-21T07:08:23;100807.00;;;23.65;100.00
32237;BME280;18726;44.732;10.550;2023-05-21T07:11:27;100806.59;;;23.66;100.00
32237;BME280;18726;44.732;10.550;2023-05-21T07:14:31;100796.78;;;23.78;100.00
32237;BME280;18726;44.732;10.550;2023-05-21T07:17:35;100809.94;;;24.06;100.00
32237;BME280;18726;44.732;10.550;2023-05-21T07:20:40;100815.84;;;24.53;100.00
32237;BME280;18726;44.732;10.550;2023-05-21T07:23:47;100812.63;;;25.64;100.00
32237;BME280;18726;44.732;10.550;2023-05-21T07:26:51;100814.22;;;27.21;93.51
32237;BME280;18726;44.732;10.550;2023-05-21T07:29:54;100810.91;;;28.94;84.46
32237;BME280;18726;44.732;10.550;2023-05-21T07:32:59;100816.00;;;30.96;69.54
32237;BME280;18726;44.732;10.550;2023-05-21T07:36:03;100814.47;;;31.94;67.28
32237;BME280;18726;44.732;10.550;2023-05-21T07:39:07;100801.38;;;32.52;61.64
32237;BME280;18726;44.732;10.550;2023-05-21T07:42:13;100809.34;;;32.79;58.80
32237;BME280;18726;44.732;10.550;2023-05-21T07:45:18;100811.94;;;30.97;66.87
32237;BME280;18726;44.732;10.550;2023-05-21T07:48:23;100809.44;;;30.69;70.98
32237;BME280;18726;44.732;10.550;2023-05-21T07:51:37;100809.66;;;30.42;70.43
32237;BME280;18726;44.732;10.550;2023-05-21T07:54:41;100803.84;;;30.31;74.77
32237;BME280;18726;44.732;10.550;2023-05-21T07:57:45;100797.59;;;29.88;75.62
32237;BME280;18726;44.732;10.550;2023-05-21T08:00:52;100801.69;;;29.78;77.88
32237;BME280;18726;44.732;10.550;2023-05-21T08:03:56;100804.88;;;29.95;76.98
32237;BME280;18726;44.732;10.550;2023-05-21T08:07:03;100812.72;;;29.58;78.70
32237;BME280;18726;44.732;10.550;2023-05-21T08:10:08;100814.03;;;29.38;80.83
32237;BME280;18726;44.732;10.550;2023-05-21T08:13:14;100816.06;;;29.38;84.77
32237;BME280;18726;44.732;10.550;2023-05-21T08:16:18;100809.75;;;29.19;82.22
32237;BME280;18726;44.732;10.550;2023-05-21T08:19:22;100814.22;;;28.83;89.17
32237;BME280;18726;44.732;10.550;2023-05-21T08:22:25;100815.63;;;28.42;88.62
32237;BME280;18726;44.732;10.550;2023-05-21T08:25:30;100818.59;;;28.30;88.55
32237;BME280;18726;44.732;10.550;2023-05-21T08:28:37;100813.59;;;28.43;91.30
32237;BME280;18726;44.732;10.550;2023-05-21T08:31:41;100807.09;;;28.55;91.13
32237;BME280;18726;44.732;10.550;2023-05-21T08:34:45;100805.53;;;28.81;82.40
32237;BME280;18726;44.732;10.550;2023-05-21T08:38:03;100801.81;;;29.17;80.36
32237;BME280;18726;44.732;10.550;2023-05-21T08:41:30;100794.72;;;29.49;76.48
32237;BME280;18726;44.732;10.550;2023-05-21T08:44:33;100802.44;;;30.11;78.07
32237;BME280;18726;44.732;10.550;2023-05-21T08:47:41;100810.69;;;30.68;73.01
32237;BME280;18726;44.732;10.550;2023-05-21T08:50:47;100804.63;;;31.14;69.02
32237;BME280;18726;44.732;10.550;2023-05-21T08:53:58;100799.59;;;31.18;74.96
32237;BME280;18726;44.732;10.550;2023-05-21T08:57:04;100802.09;;;31.16;75.07
32237;BME280;18726;44.732;10.550;2023-05-21T09:00:09;100811.13;;;30.52;69.78
32237;BME280;18726;44.732;10.550;2023-05-21T09:03:14;100809.53;;;30.21;72.83
32237;BME280;18726;44.732;10.550;2023-05-21T09:06:20;100805.72;;;30.10;76.70
32237;BME280;18726;44.732;10.550;2023-05-21T09:09:31;100802.72;;;30.13;75.97
32237;BME280;18726;44.732;10.550;2023-05-21T09:12:36;100801.13;;;30.60;76.09
32237;BME280;18726;44.732;10.550;2023-05-21T09:15:40;100808.84;;;31.09;72.26
32237;BME280;18726;44.732;10.550;2023-05-21T09:21:38;100815.28;;;31.80;68.40
32237;BME280;18726;44.732;10.550;2023-05-21T09:24:50;100817.34;;;32.40;64.60
32237;BME280;18726;44.732;10.550;2023-05-21T09:27:55;100817.56;;;33.14;63.25
32237;BME280;18726;44.732;10.550;2023-05-21T09:31:02;100820.59;;;33.42;61.71
32237;BME280;18726;44.732;10.550;2023-05-21T09:34:05;100830.38;;;33.15;59.23
32237;BME280;18726;44.732;10.550;2023-05-21T09:37:09;100824.97;;;33.12;56.82
32237;BME280;18726;44.732;10.550;2023-05-21T09:40:23;100826.69;;;33.35;58.02
32237;BME280;18726;44.732;10.550;2023-05-21T09:43:27;100823.59;;;33.33;56.37
32237;BME280;18726;44.732;10.550;2023-05-21T09:46:39;100819.34;;;33.12;62.95
32237;BME280;18726;44.732;10.550;2023-05-21T09:49:44;100822.59;;;33.36;59.32
32237;BME280;18726;44.732;10.550;2023-05-21T09:52:49;100815.84;;;32.91;61.65
32237;BME280;18726;44.732;10.550;2023-05-21T09:55:56;100821.31;;;33.06;62.57
32237;BME280;18726;44.732;10.550;2023-05-21T09:59:01;100817.56;;;33.14;69.45
32237;BME280;18726;44.732;10.550;2023-05-21T10:02:20;100819.22;;;33.01;70.75
32237;BME280;18726;44.732;10.550;2023-05-21T10:05:27;100819.56;;;33.08;70.11
32237;BME280;18726;44.732;10.550;2023-05-21T10:08:34;100813.34;;;33.30;66.65
32237;BME280;18726;44.732;10.550;2023-05-21T10:11:43;100814.88;;;33.68;71.36
32237;BME280;18726;44.732;10.550;2023-05-21T10:14:50;100814.63;;;33.72;66.54
32237;BME280;18726;44.732;10.550;2023-05-21T10:17:55;100801.72;;;33.22;73.42
32237;BME280;18726;44.732;10.550;2023-05-21T10:20:59;100806.72;;;33.33;73.75
32237;BME280;18726;44.732;10.550;2023-05-21T10:24:04;100813.75;;;33.49;71.33
32237;BME280;18726;44.732;10.550;2023-05-21T10:27:09;100811.00;;;33.66;73.72
32237;BME280;18726;44.732;10.550;2023-05-21T10:30:16;100819.56;;;33.82;67.73
32237;BME280;18726;44.732;10.550;2023-05-21T10:33:22;100817.19;;;33.70;61.17
32237;BME280;18726;44.732;10.550;2023-05-21T10:36:29;100809.81;;;32.52;66.23
32237;BME280;18726;44.732;10.550;2023-05-21T10:39:38;100813.59;;;33.01;66.23
32237;BME280;18726;44.732;10.550;2023-05-21T10:53:36;100796.75;;;32.08;75.00
32237;BME280;18726;44.732;10.550;2023-05-21T11:00:27;100778.22;;;32.63;79.99
32237;BME280;18726;44.732;10.550;2023-05-21T11:03:32;100785.44;;;33.01;72.43
32237;BME280;18726;44.732;10.550;2023-05-21T11:06:36;100771.66;;;30.41;59.22
32237;BME280;18726;44.732;10.550;2023-05-21T11:09:40;100774.31;;;31.18;74.83
32237;BME280;18726;44.732;10.550;2023-05-21T11:13:15;100775.28;;;32.51;81.96
32237;BME280;18726;44.732;10.550;2023-05-21T11:16:22;100773.66;;;32.45;63.05
32237;BME280;18726;44.732;10.550;2023-05-21T11:19:42;100781.31;;;31.98;55.90
32237;BME280;18726;44.732;10.550;2023-05-21T11:22:46;100764.31;;;32.28;63.76
32237;BME280;18726;44.732;10.550;2023-05-21T11:26:02;100766.44;;;30.34;60.92
32237;BME280;18726;44.732;10.550;2023-05-21T11:29:07;100759.22;;;29.55;69.82
32237;BME280;18726;44.732;10.550;2023-05-21T11:32:12;100765.00;;;29.52;64.30
32237;BME280;18726;44.732;10.550;2023-05-21T11:35:16;100756.22;;;30.45;80.76
32237;BME280;18726;44.732;10.550;2023-05-21T11:38:20;100763.75;;;30.98;62.47
32237;BME280;18726;44.732;10.550;2023-05-21T11:41:23;100748.94;;;31.47;64.34
32237;BME280;18726;44.732;10.550;2023-05-21T11:44:43;100751.81;;;31.88;63.27
32237;BME280;18726;44.732;10.550;2023-05-21T11:47:48;100754.69;;;32.66;77.48
32237;BME280;18726;44.732;10.550;2023-05-21T11:50:52;100752.50;;;32.75;63.46
32237;BME280;18726;44.732;10.550;2023-05-21T11:53:55;100742.44;;;32.69;69.65
32237;BME280;18726;44.732;10.550;2023-05-21T11:56:59;100742.94;;;32.99;73.83
32237;BME280;18726;44.732;10.550;2023-05-21T12:00:06;100744.25;;;33.88;67.30
32237;BME280;18726;44.732;10.550;2023-05-21T12:03:16;100747.00;;;34.59;59.37
32237;BME280;18726;44.732;10.550;2023-05-21T12:06:25;100747.03;;;34.87;59.60
32237;BME280;18726;44.732;10.550;2023-05-21T12:09:28;100750.34;;;35.08;63.69
32237;BME280;18726;44.732;10.550;2023-05-21T12:12:33;100740.31;;;35.35;61.19
32237;BME280;18726;44.732;10.550;2023-05-21T12:15:37;100733.88;;;35.34;63.13
32237;BME280;18726;44.732;10.550;2023-05-21T12:18:40;100731.81;;;32.27;54.62
32237;BME280;18726;44.732;10.550;2023-05-21T12:21:44;100721.97;;;30.27;62.72
32237;BME280;18726;44.732;10.550;2023-05-21T12:24:48;100732.75;;;31.22;69.28
32237;BME280;18726;44.732;10.550;2023-05-21T12:27:52;100726.16;;;31.80;75.98
32237;BME280;18726;44.732;10.550;2023-05-21T12:31:00;100719.69;;;32.72;69.20
32237;BME280;18726;44.732;10.550;2023-05-21T12:34:03;100720.75;;;33.06;67.88
32237;BME280;18726;44.732;10.550;2023-05-21T12:37:07;100721.44;;;32.96;65.63
32237;BME280;18726;44.732;10.550;2023-05-21T12:40:11;100725.09;;;33.44;65.36
32237;BME280;18726;44.732;10.550;2023-05-21T12:43:15;100726.16;;;33.47;63.51
32237;BME280;18726;44.732;10.550;2023-05-21T12:46:19;100728.00;;;32.81;60.19
32237;BME280;18726;44.732;10.550;2023-05-21T12:49:37;100718.06;;;32.86;64.25
32237;BME280;18726;44.732;10.550;2023-05-21T12:52:43;100719.50;;;33.13;70.19
32237;BME280;18726;44.732;10.550;2023-05-21T12:55:46;100715.31;;;32.40;71.79
32237;BME280;18726;44.732;10.550;2023-05-21T12:58:51;100706.56;;;32.90;72.95
32237;BME280;18726;44.732;10.550;2023-05-21T13:01:54;100711.69;;;32.91;65.73
32237;BME280;18726;44.732;10.550;2023-05-21T13:08:02;100709.09;;;33.73;67.37
32237;BME280;18726;44.732;10.550;2023-05-21T13:11:06;100703.34;;;33.45;61.80
32237;BME280;18726;44.732;10.550;2023-05-21T13:14:10;100697.59;;;33.82;64.00
32237;BME280;18726;44.732;10.550;2023-05-21T13:17:13;100701.28;;;33.45;51.23
32237;BME280;18726;44.732;10.550;2023-05-21T13:20:18;100699.94;;;32.35;65.63
32237;BME280;18726;44.732;10.550;2023-05-21T13:23:23;100698.34;;;32.86;64.41
32237;BME280;18726;44.732;10.550;2023-05-21T13:26:27;100693.06;;;33.36;66.53
32237;BME280;18726;44.732;10.550;2023-05-21T13:29:31;100697.31;;;33.26;61.63
32237;BME280;18726;44.732;10.550;2023-05-21T13:32:36;100687.84;;;32.24;55.33
32237;BME280;18726;44.732;10.550;2023-05-21T13:35:39;100685.28;;;32.83;59.57
32237;BME280;18726;44.732;10.550;2023-05-21T13:38:43;100682.66;;;31.96;59.18
32237;BME280;18726;44.732;10.550;2023-05-21T13:41:47;100678.41;;;31.80;58.69
32237;BME280;18726;44.732;10.550;2023-05-21T13:44:51;100668.50;;;31.24;62.18
32237;BME280;18726;44.732;10.550;2023-05-21T13:47:55;100665.41;;;30.87;60.90
32237;BME280;18726;44.732;10.550;2023-05-21T13:50:59;100667.97;;;30.90;75.00
32237;BME280;18726;44.732;10.550;2023-05-21T13:54:03;100664.50;;;31.51;77.07
32237;BME280;18726;44.732;10.550;2023-05-21T13:57:06;100670.25;;;31.62;74.49
32237;BME280;18726;44.732;10.550;2023-05-21T14:00:10;100677.13;;;31.61;77.07
32237;BME280;18726;44.732;10.550;2023-05-21T14:03:16;100670.47;;;31.59;74.77
32237;BME280;18726;44.732;10.550;2023-05-21T14:06:20;100663.16;;;31.87;76.01
32237;BME280;18726;44.732;10.550;2023-05-21T14:09:24;100659.97;;;31.74;69.21
32237;BME280;18726;44.732;10.550;2023-05-21T14:12:29;100660.28;;;32.07;72.76
32237;BME280;18726;44.732;10.550;2023-05-21T14:15:33;100658.53;;;32.36;70.10
32237;BME280;18726;44.732;10.550;2023-05-21T14:18:36;100649.91;;;32.45;72.90
32237;BME280;18726;44.732;10.550;2023-05-21T14:21:41;100652.47;;;32.74;69.59
32237;BME280;18726;44.732;10.550;2023-05-21T14:24:44;100655.38;;;32.85;67.12
32237;BME280;18726;44.732;10.550;2023-05-21T14:27:49;100645.28;;;32.73;66.99
32237;BME280;18726;44.732;10.550;2023-05-21T14:30:52;100655.84;;;32.78;64.11
32237;BME280;18726;44.732;10.550;2023-05-21T14:33:56;100641.09;;;32.63;67.09
32237;BME280;18726;44.732;10.550;2023-05-21T14:37:00;100641.84;;;30.99;62.34
32237;BME280;18726;44.732;10.550;2023-05-21T14:40:03;100633.13;;;31.73;68.09
32237;BME280;18726;44.732;10.550;2023-05-21T14:43:10;100639.53;;;31.99;70.15
32237;BME280;18726;44.732;10.550;2023-05-21T14:46:14;100634.28;;;32.12;64.82
32237;BME280;18726;44.732;10.550;2023-05-21T14:49:17;100631.28;;;31.09;58.71
32237;BME280;18726;44.732;10.550;2023-05-21T14:52:21;100626.59;;;31.41;57.80
32237;BME280;18726;44.732;10.550;2023-05-21T14:55:24;100621.78;;;29.83;52.85
32237;BME280;18726;44.732;10.550;2023-05-21T14:58:29;100624.41;;;29.24;55.07
32237;BME280;18726;44.732;10.550;2023-05-21T15:01:32;100620.69;;;28.10;54.73
32237;BME280;18726;44.732;10.550;2023-05-21T15:04:36;100633.44;;;27.74;55.41
32237;BME280;18726;44.732;10.550;2023-05-21T15:07:40;100634.19;;;27.56;56.21
32237;BME280;18726;44.732;10.550;2023-05-21T15:10:44;100635.78;;;27.67;56.81
32237;BME280;18726;44.732;10.550;2023-05-21T15:13:48;100637.63;;;27.88;55.53
32237;BME280;18726;44.732;10.550;2023-05-21T15:16:51;100648.91;;;28.12;55.58
32237;BME280;18726;44.732;10.550;2023-05-21T15:19:55;100643.34;;;28.21;54.31
32237;BME280;18726;44.732;10.550;2023-05-21T15:22:58;100637.31;;;27.86;53.87
32237;BME280;18726;44.732;10.550;2023-05-21T15:26:03;100639.59;;;27.33;58.44
32237;BME280;18726;44.732;10.550;2023-05-21T15:29:07;100639.19;;;27.80;56.36
32237;BME280;18726;44.732;10.550;2023-05-21T15:32:11;100636.69;;;27.82;58.88
32237;BME280;18726;44.732;10.550;2023-05-21T15:35:15;100625.97;;;27.44;60.06
32237;BME280;18726;44.732;10.550;2023-05-21T15:38:18;100633.91;;;27.73;58.47
32237;BME280;18726;44.732;10.550;2023-05-21T15:41:22;100631.66;;;27.22;57.94
32237;BME280;18726;44.732;10.550;2023-05-21T15:44:26;100628.97;;;27.68;62.06
32237;BME280;18726;44.732;10.550;2023-05-21T15:47:29;100623.63;;;27.24;62.66
32237;BME280;18726;44.732;10.550;2023-05-21T15:50:33;100626.16;;;27.59;58.73
32237;BME280;18726;44.732;10.550;2023-05-21T15:53:40;100624.09;;;27.50;57.08
32237;BME280;18726;44.732;10.550;2023-05-21T15:56:44;100624.88;;;27.32;60.21
32237;BME280;18726;44.732;10.550;2023-05-21T15:59:50;100627.00;;;27.19;60.72
32237;BME280;18726;44.732;10.550;2023-05-21T16:02:55;100620.00;;;26.56;57.96
32237;BME280;18726;44.732;10.550;2023-05-21T16:05:58;100630.59;;;27.10;58.21
32237;BME280;18726;44.732;10.550;2023-05-21T16:09:02;100622.97;;;27.02;58.48
32237;BME280;18726;44.732;10.550;2023-05-21T16:12:06;100621.09;;;26.99;60.60